Flight Track Log - Related Links

Times and Time Zones

All times are in EDT time to prevent confusion due to time zone crossing. See the N2895W flight status page for this flight to view local times or setup timezone preferences in your user account.


Time Position Orientation Groundspeed Altitude Reporting Facility
EDT Latitude Longitude Course Direction KTS MPH feet Rate Location/Type
Mon 09:40:27 AM 42.6100 -78.2614 165° South 186 214 7,400  Level Cleveland Center
Mon 09:41:27 AM 42.5617 -78.2433 165° South 186 214 7,400  Level Cleveland Center
Mon 09:42:27 AM 42.5133 -78.2256 165° South 186 214 7,400  Level Cleveland Center
Mon 09:43:27 AM 42.4669 -78.2047 162° South 186 214 7,400  Level Cleveland Center
Mon 09:44:27 AM 42.4186 -78.1811 160° South 186 214 7,400  Level Cleveland Center
Mon 09:45:27 AM 42.3703 -78.1606 163° South 186 214 7,400  Level Cleveland Center
Mon 09:46:27 AM 42.3239 -78.1400 162° South 186 214 7,400  Level Cleveland Center
Mon 09:47:27 AM 42.2756 -78.1192 162° South 186 214 7,400  Level Cleveland Center
Mon 09:48:27 AM 42.2292 -78.0986 162° South 186 214 7,400  Level Cleveland Center
Mon 09:49:27 AM 42.1828 -78.0781 162° South 186 214 7,400  Level Cleveland Center
Mon 09:50:27 AM 42.1325 -78.0603 165° South 186 214 7,400  Level Cleveland Center
Mon 09:51:27 AM 42.0861 -78.0397 162° South 186 214 7,400  Level Cleveland Center
Mon 09:52:27 AM 42.0397 -78.0194 162° South 186 214 7,400  Level Cleveland Center
Mon 09:53:27 AM 41.9936 -77.9989 162° South 186 214 7,400  Level Cleveland Center
Mon 09:54:27 AM 41.9450 -77.9783 163° South 186 214 7,400  Level Cleveland Center
Mon 09:55:27 AM 41.8967 -77.9608 165° South 194 223 7,400  Level Cleveland Center
Mon 09:56:27 AM 41.8525 -77.9403 161° South 194 223 7,400  Level Cleveland Center
Mon 09:57:27 AM 41.8042 -77.9200 163° South 188 216 7,400  Level Cleveland Center
Mon 09:58:27 AM 41.7578 -77.8997 162° South 188 216 7,400  Level Cleveland Center
Mon 10:00:05 AM 41.6781 -77.8672 163° South 176 203 7,400  Level New York Center
Mon 10:01:06 AM 41.6294 -77.8453 161° South 183 211 7,400  Level New York Center
Mon 10:02:06 AM 41.5828 -77.8236 161° South 183 211 7,400  Level New York Center
Mon 10:03:06 AM 41.5358 -77.8050 163° South 183 211 7,400  Level New York Center
Mon 10:04:05 AM 41.4892 -77.7861 163° South 183 211 7,400  Level New York Center
Mon 10:05:06 AM 41.4422 -77.7675 163° South 183 211 7,400  Level New York Center
Mon 10:06:07 AM 41.3978 -77.7461 160° South 183 211 7,400  Level New York Center
Mon 10:07:07 AM 41.3489 -77.7275 164° South 183 211 7,400  Level New York Center
Mon 10:08:05 AM 41.3022 -77.7058 161° South 183 211 7,400  Level New York Center
Mon 10:09:05 AM 41.2553 -77.6875 164° South 183 211 7,400  Level New York Center
Mon 10:10:06 AM 41.2086 -77.6661 161° South 183 211 7,400 -50 Level New York Center
Mon 10:11:06 AM 41.1619 -77.6447 161° South 183 211 7,300  Descending New York Center
Mon 10:12:06 AM 41.1150 -77.6261 163° South 183 211 7,400 50 Climbing New York Center
Mon 10:13:06 AM 41.0683 -77.6078 164° South 183 211 7,400  Level New York Center
Mon 10:14:05 AM 41.0236 -77.5867 160° South 183 211 7,400  Level New York Center
Mon 10:15:05 AM 40.9747 -77.5681 164° South 183 211 7,400  Level New York Center
Mon 10:16:06 AM 40.9278 -77.5469 161° South 183 211 7,400  Level New York Center
Mon 10:17:07 AM 40.8811 -77.5286 163° South 183 211 7,400 -50 Level New York Center
Mon 10:18:07 AM 40.8342 -77.5075 161° South 183 211 7,300 -50 Descending New York Center
Mon 10:19:08 AM 40.7875 -77.4892 163° South 183 211 7,300 51 Level New York Center
Mon 10:20:05 AM 40.7425 -77.4711 163° South 183 211 7,400  Climbing New York Center
Mon 10:21:05 AM 40.6936 -77.4497 162° South 183 211 7,300 -50 Descending New York Center
Mon 10:22:06 AM 40.6492 -77.4292 161° South 183 211 7,300  Level New York Center
Mon 10:23:07 AM 40.6022 -77.4108 163° South 183 211 7,300  Level New York Center
Mon 10:24:05 AM 40.5511 -77.3922 165° South 183 211 7,300  Level New York Center
Mon 10:25:05 AM 40.5083 -77.3717 160° South 183 211 7,300  Level New York Center
Mon 10:26:07 AM 40.4553 -77.3531 165° South 183 211 7,300  Level New York Center
Mon 10:27:07 AM 40.4147 -77.3328 159° South 183 211 7,300  Level New York Center
Mon 10:28:07 AM 40.3619 -77.3086 161° South 183 211 7,300  Level New York Center
Mon 10:29:05 AM 40.3211 -77.2911 162° South 183 211 7,300  Level New York Center
Mon 10:31:06 AM 40.2253 -77.2497 162° South 183 211 7,300 -33 Level New York Center
Mon 10:32:07 AM 40.1744 -77.2286 162° South 183 211 7,200 -198 Descending New York Center
Mon 10:33:07 AM 40.1294 -77.2108 163° South 183 211 6,900 -508 Descending New York Center
Mon 10:34:05 AM 40.0753 -77.1706 150° Southeast 189 217 6,200 305 Descending New York Center
Mon 10:35:05 AM 40.0303 -77.1556 166° South 189 217 7,500 1,300 Climbing New York Center

Login

Don't have an account? Register now (free) for customized features, flight alerts, and more!